Time,TemperatureF,DewpointF,PressureIn,WindDirection,WindDirectionDegrees,WindSpeedMPH,WindSpeedGustMPH,Humidity,HourlyPrecipIn,Conditions,Clouds,dailyrainin,SoftwareType,DateUTC
2013-03-04 00:13:00,65.1,2.4,29.78,West,270,4.2,-999.0,8,-99.99,,,0.00,Acu-Link.com,2013-03-04 07:13:00,
2013-03-04 00:28:00,64.6,2.0,29.77,WNW,292,2.2,-999.0,8,-99.99,,,0.00,Acu-Link.com,2013-03-04 07:28:00,
2013-03-04 00:44:00,63.7,3.8,29.77,WNW,292,2.7,-999.0,9,-99.99,,,0.00,Acu-Link.com,2013-03-04 07:44:00,
2013-03-04 00:59:00,62.6,5.3,29.77,WNW,292,0.0,-999.0,10,-99.99,,,0.00,Acu-Link.com,2013-03-04 07:59:00,
2013-03-04 01:14:00,60.4,5.7,29.78,WNW,292,2.2,-999.0,11,-99.99,,,0.00,Acu-Link.com,2013-03-04 08:14:00,
2013-03-04 01:29:00,58.1,7.5,29.78,WNW,292,0.0,-999.0,13,-99.99,,,0.00,Acu-Link.com,2013-03-04 08:29:00,
2013-03-04 01:44:00,56.8,9.7,29.77,WNW,292,1.7,-999.0,15,-99.99,,,0.00,Acu-Link.com,2013-03-04 08:44:00,
2013-03-04 01:59:00,56.7,9.6,29.78,WNW,292,0.0,-999.0,15,-99.99,,,0.00,Acu-Link.com,2013-03-04 08:59:00,
2013-03-04 02:19:00,56.5,9.4,29.77,WNW,292,1.7,-999.0,15,-99.99,,,0.00,Acu-Link.com,2013-03-04 09:19:00,
2013-03-04 02:34:00,57.0,9.8,29.76,WNW,292,2.2,-999.0,15,-99.99,,,0.00,Acu-Link.com,2013-03-04 09:34:00,
2013-03-04 02:49:00,55.6,10.1,29.75,WNW,292,1.7,-999.0,16,-99.99,,,0.00,Acu-Link.com,2013-03-04 09:49:00,
2013-03-04 03:04:00,55.0,11.0,29.75,WNW,292,0.0,-999.0,17,-99.99,,,0.00,Acu-Link.com,2013-03-04 10:04:00,
2013-03-04 03:19:00,54.3,11.7,29.74,WNW,292,2.7,-999.0,18,-99.99,,,0.00,Acu-Link.com,2013-03-04 10:19:00,
2013-03-04 03:35:00,53.2,9.5,29.75,WNW,292,2.2,-999.0,17,-99.99,,,0.00,Acu-Link.com,2013-03-04 10:35:00,
2013-03-04 03:50:00,55.0,12.3,29.75,WNW,292,2.2,-999.0,18,-99.99,,,0.00,Acu-Link.com,2013-03-04 10:50:00,
2013-03-04 04:05:00,55.8,11.7,29.75,WNW,292,2.7,-999.0,17,-99.99,,,0.00,Acu-Link.com,2013-03-04 11:05:00,
2013-03-04 04:20:00,53.8,11.3,29.75,WNW,292,0.0,-999.0,18,-99.99,,,0.00,Acu-Link.com,2013-03-04 11:20:00,
2013-03-04 04:35:00,52.0,11.0,29.76,WNW,292,0.0,-999.0,19,-99.99,,,0.00,Acu-Link.com,2013-03-04 11:35:00,
2013-03-04 04:50:00,50.9,10.1,29.76,WNW,292,0.0,-999.0,19,-99.99,,,0.00,Acu-Link.com,2013-03-04 11:50:00,
2013-03-04 05:05:00,53.1,12.0,29.77,WSW,247,3.2,-999.0,19,-99.99,,,0.00,Acu-Link.com,2013-03-04 12:05:00,
2013-03-04 05:20:00,51.1,11.4,29.77,WSW,247,1.7,-999.0,20,-99.99,,,0.00,Acu-Link.com,2013-03-04 12:20:00,
2013-03-04 05:35:00,50.4,12.0,29.78,South,180,3.7,-999.0,21,-99.99,,,0.00,Acu-Link.com,2013-03-04 12:35:00,
2013-03-04 05:51:00,50.5,12.0,29.78,South,180,1.7,-999.0,21,-99.99,,,0.00,Acu-Link.com,2013-03-04 12:51:00,
2013-03-04 06:06:00,50.4,12.0,29.78,South,180,0.0,-999.0,21,-99.99,,,0.00,Acu-Link.com,2013-03-04 13:06:00,
2013-03-04 06:21:00,50.2,11.8,29.78,South,180,0.0,-999.0,21,-99.99,,,0.00,Acu-Link.com,2013-03-04 13:21:00,
2013-03-04 06:36:00,50.5,13.1,29.78,South,180,0.0,-999.0,22,-99.99,,,0.00,Acu-Link.com,2013-03-04 13:36:00,
2013-03-04 06:51:00,53.1,10.7,29.79,SSE,157,4.2,-999.0,18,-99.99,,,0.00,Acu-Link.com,2013-03-04 13:51:00,
2013-03-04 07:06:00,54.1,10.3,29.81,SSE,157,1.7,-999.0,17,-99.99,,,0.00,Acu-Link.com,2013-03-04 14:06:00,
2013-03-04 07:24:00,54.9,9.6,29.80,SSE,157,3.2,-999.0,16,-99.99,,,0.00,Acu-Link.com,2013-03-04 14:24:00,
2013-03-04 07:39:00,55.4,7.0,29.80,SSE,157,4.2,-999.0,14,-99.99,,,0.00,Acu-Link.com,2013-03-04 14:39:00,
2013-03-04 07:54:00,57.9,5.6,29.81,SSE,157,4.7,-999.0,12,-99.99,,,0.00,Acu-Link.com,2013-03-04 14:54:00,
2013-03-04 08:09:00,59.5,5.0,29.80,South,180,6.8,-999.0,11,-99.99,,,0.00,Acu-Link.com,2013-03-04 15:09:00,
2013-03-04 08:24:00,60.6,3.8,29.80,South,180,3.7,-999.0,10,-99.99,,,0.00,Acu-Link.com,2013-03-04 15:24:00,
2013-03-04 08:39:00,61.0,1.8,29.78,South,180,7.3,-999.0,9,-99.99,,,0.00,Acu-Link.com,2013-03-04 15:39:00,
2013-03-04 08:54:00,62.4,5.1,29.78,SSE,157,7.8,-999.0,10,-99.99,,,0.00,Acu-Link.com,2013-03-04 15:54:00,
2013-03-04 09:09:00,64.9,-3.9,29.80,South,180,4.7,-999.0,6,-99.99,,,0.00,Acu-Link.com,2013-03-04 16:09:00,
2013-03-04 09:25:00,67.1,-6.1,29.79,WSW,247,5.8,-999.0,5,-99.99,,,0.00,Acu-Link.com,2013-03-04 16:25:00,
2013-03-04 09:40:00,69.4,-9.0,29.78,SW,225,2.7,-999.0,4,-99.99,,,0.00,Acu-Link.com,2013-03-04 16:40:00,
2013-03-04 09:55:00,70.7,-8.1,29.77,SSE,157,5.3,-999.0,4,-99.99,,,0.00,Acu-Link.com,2013-03-04 16:55:00,
2013-03-04 10:10:00,73.8,-19.7,29.77,WSW,247,7.8,-999.0,2,-99.99,,,0.00,Acu-Link.com,2013-03-04 17:10:00,
2013-03-04 10:25:00,73.4,-6.2,29.76,SE,135,6.3,-999.0,4,-99.99,,,0.00,Acu-Link.com,2013-03-04 17:25:00,
2013-03-04 10:40:00,75.7,-31.4,29.75,South,180,4.7,-999.0,1,-99.99,,,0.00,Acu-Link.com,2013-03-04 17:40:00,
2013-03-04 10:55:00,74.5,-32.1,29.76,SW,225,5.8,-999.0,1,-99.99,,,0.00,Acu-Link.com,2013-03-04 17:55:00,
2013-03-04 11:10:00,75.2,-31.7,29.74,WSW,247,8.9,-999.0,1,-99.99,,,0.00,Acu-Link.com,2013-03-04 18:10:00,
2013-03-04 11:25:00,77.2,-30.5,29.74,WSW,247,10.9,-999.0,1,-99.99,,,0.00,Acu-Link.com,2013-03-04 18:25:00,
2013-03-04 11:41:00,76.5,-30.9,29.72,WSW,247,12.5,-999.0,1,-99.99,,,0.00,Acu-Link.com,2013-03-04 18:41:00,
2013-03-04 11:56:00,77.2,-30.5,29.70,WSW,247,17.1,-999.0,1,-99.99,,,0.00,Acu-Link.com,2013-03-04 18:56:00,
2013-03-04 12:11:00,77.9,-30.1,29.70,SSW,202,7.8,-999.0,1,-99.99,,,0.00,Acu-Link.com,2013-03-04 19:11:00,
2013-03-04 12:26:00,78.4,-29.8,29.67,SW,225,15.5,-999.0,1,-99.99,,,0.00,Acu-Link.com,2013-03-04 19:26:00,
2013-03-04 12:41:00,78.6,-2.7,29.66,West,270,6.8,-999.0,4,-99.99,,,0.00,Acu-Link.com,2013-03-04 19:41:00,
2013-03-04 12:56:00,79.2,9.8,29.64,WSW,247,8.3,-999.0,7,-99.99,,,0.00,Acu-Link.com,2013-03-04 19:56:00,
2013-03-04 13:11:00,79.9,20.7,29.63,WSW,247,24.8,-999.0,11,-99.99,,,0.00,Acu-Link.com,2013-03-04 20:11:00,
2013-03-04 13:26:00,78.8,25.6,29.63,West,270,16.6,-999.0,14,-99.99,,,0.00,Acu-Link.com,2013-03-04 20:26:00,
2013-03-04 13:42:00,79.7,28.0,29.61,West,270,14.0,-999.0,15,-99.99,,,0.00,Acu-Link.com,2013-03-04 20:42:00,
2013-03-04 13:57:00,79.2,27.6,29.62,West,270,7.3,-999.0,15,-99.99,,,0.00,Acu-Link.com,2013-03-04 20:57:00,
2013-03-04 14:12:00,78.8,27.2,29.61,West,270,21.2,-999.0,15,-99.99,,,0.00,Acu-Link.com,2013-03-04 21:12:00,
2013-03-04 14:27:00,79.3,26.0,29.61,WSW,247,15.0,-999.0,14,-99.99,,,0.00,Acu-Link.com,2013-03-04 21:27:00,
2013-03-04 14:42:00,78.8,21.9,29.60,West,270,12.5,-999.0,12,-99.99,,,0.00,Acu-Link.com,2013-03-04 21:42:00,
2013-03-04 14:57:00,79.0,17.8,29.61,WSW,247,22.2,-999.0,10,-99.99,,,0.00,Acu-Link.com,2013-03-04 21:57:00,
2013-03-04 15:12:00,78.4,17.3,29.61,West,270,14.0,-999.0,10,-99.99,,,0.00,Acu-Link.com,2013-03-04 22:12:00,
2013-03-04 15:27:00,77.7,14.4,29.61,WSW,247,15.0,-999.0,9,-99.99,,,0.00,Acu-Link.com,2013-03-04 22:27:00,
2013-03-04 15:42:00,77.9,14.5,29.61,West,270,24.3,-999.0,9,-99.99,,,0.00,Acu-Link.com,2013-03-04 22:42:00,
2013-03-04 15:58:00,77.7,16.8,29.62,West,270,15.5,-999.0,10,-99.99,,,0.00,Acu-Link.com,2013-03-04 22:58:00,
2013-03-04 16:13:00,77.2,18.6,29.62,SW,225,15.5,-999.0,11,-99.99,,,0.00,Acu-Link.com,2013-03-04 23:13:00,
2013-03-04 16:29:00,76.5,20.1,29.63,West,270,14.5,-999.0,12,-99.99,,,0.00,Acu-Link.com,2013-03-04 23:29:00,
2013-03-04 16:44:00,75.7,21.4,29.62,West,270,17.6,-999.0,13,-99.99,,,0.00,Acu-Link.com,2013-03-04 23:44:00,
2013-03-04 16:59:00,75.2,22.7,29.63,WSW,247,15.0,-999.0,14,-99.99,,,0.00,Acu-Link.com,2013-03-04 23:59:00,
2013-03-04 17:14:00,74.1,20.1,29.64,West,270,13.5,-999.0,13,-99.99,,,0.00,Acu-Link.com,2013-03-05 00:14:00,
2013-03-04 17:30:00,73.0,19.3,29.67,WSW,247,17.6,-999.0,13,-99.99,,,0.00,Acu-Link.com,2013-03-05 00:30:00,
2013-03-04 17:45:00,71.6,18.2,29.67,WNW,292,16.1,-999.0,13,-99.99,,,0.00,Acu-Link.com,2013-03-05 00:45:00,
2013-03-04 18:00:00,70.9,15.8,29.68,WNW,292,15.0,-999.0,12,-99.99,,,0.00,Acu-Link.com,2013-03-05 01:00:00,
2013-03-04 18:15:00,70.2,15.2,29.70,West,270,7.8,-999.0,12,-99.99,,,0.00,Acu-Link.com,2013-03-05 01:15:00,
2013-03-04 18:30:00,69.3,14.5,29.71,SW,225,9.4,-999.0,12,-99.99,,,0.00,Acu-Link.com,2013-03-05 01:30:00,
2013-03-04 18:45:00,68.5,15.7,29.73,West,270,9.9,-999.0,13,-99.99,,,0.00,Acu-Link.com,2013-03-05 01:45:00,
2013-03-04 19:00:00,68.0,17.0,29.75,WNW,292,22.7,-999.0,14,-99.99,,,0.00,Acu-Link.com,2013-03-05 02:00:00,
2013-03-04 19:15:00,67.1,16.3,29.76,WNW,292,11.9,-999.0,14,-99.99,,,0.00,Acu-Link.com,2013-03-05 02:15:00,
2013-03-04 19:30:00,66.7,17.6,29.77,West,270,17.1,-999.0,15,-99.99,,,0.00,Acu-Link.com,2013-03-05 02:30:00,
2013-03-04 19:46:00,66.2,17.2,29.78,WNW,292,7.3,-999.0,15,-99.99,,,0.00,Acu-Link.com,2013-03-05 02:46:00,
2013-03-04 20:01:00,65.8,16.9,29.79,West,270,7.3,-999.0,15,-99.99,,,0.00,Acu-Link.com,2013-03-05 03:01:00,
2013-03-04 20:16:00,65.8,16.9,29.79,West,270,16.1,-999.0,15,-99.99,,,0.00,Acu-Link.com,2013-03-05 03:16:00,
2013-03-04 20:31:00,65.7,15.2,29.81,WNW,292,8.9,-999.0,14,-99.99,,,0.00,Acu-Link.com,2013-03-05 03:31:00,
2013-03-04 20:46:00,65.1,17.8,29.82,NW,315,14.0,-999.0,16,-99.99,,,0.00,Acu-Link.com,2013-03-05 03:46:00,
2013-03-04 21:02:00,64.8,17.6,29.83,NNW,337,10.9,-999.0,16,-99.99,,,0.00,Acu-Link.com,2013-03-05 04:02:00,
2013-03-04 21:17:00,64.2,17.1,29.84,NNW,337,9.4,-999.0,16,-99.99,,,0.00,Acu-Link.com,2013-03-05 04:17:00,
2013-03-04 21:32:00,64.0,16.9,29.85,West,270,11.4,-999.0,16,-99.99,,,0.00,Acu-Link.com,2013-03-05 04:32:00,
2013-03-04 21:47:00,64.0,15.4,29.86,West,270,17.6,-999.0,15,-99.99,,,0.00,Acu-Link.com,2013-03-05 04:47:00,
2013-03-04 22:02:00,64.0,13.9,29.85,West,270,11.9,-999.0,14,-99.99,,,0.00,Acu-Link.com,2013-03-05 05:02:00,
2013-03-04 22:17:00,63.3,11.6,29.88,NW,315,6.8,-999.0,13,-99.99,,,0.00,Acu-Link.com,2013-03-05 05:17:00,
2013-03-04 22:32:00,62.8,9.5,29.88,WSW,247,1.7,-999.0,12,-99.99,,,0.00,Acu-Link.com,2013-03-05 05:32:00,
2013-03-04 22:48:00,61.7,12.0,29.88,West,270,8.9,-999.0,14,-99.99,,,0.00,Acu-Link.com,2013-03-05 05:48:00,
2013-03-04 23:03:00,61.5,14.9,29.87,West,270,6.8,-999.0,16,-99.99,,,0.00,Acu-Link.com,2013-03-05 06:03:00,
2013-03-04 23:18:00,61.0,17.2,29.88,West,270,5.3,-999.0,18,-99.99,,,0.00,Acu-Link.com,2013-03-05 06:18:00,
2013-03-04 23:33:00,59.7,17.4,29.89,WNW,292,0.0,-999.0,19,-99.99,,,0.00,Acu-Link.com,2013-03-05 06:33:00,
2013-03-04 23:48:00,57.6,15.7,29.90,WNW,292,0.0,-999.0,19,-99.99,,,0.00,Acu-Link.com,2013-03-05 06:48:00,